Time;durP1;ratioP1;P1;durP2;ratioP2;P2;SDS_P1;SDS_P2;PMS_P1;PMS_P2;Temp;Humidity;BMP_temperature;BMP_pressure;BME280_temperature;BME280_humidity;BME280_pressure;Samples;Min_cycle;Max_cycle;Signal;HPM_P1;HPM_P2
2023/06/20 00:02:04;;;;;;;8.43;7.63;;;;;;;21.56;51.69;100300.56;5131478;27;20219;-62
2023/06/20 00:04:32;;;;;;;9.18;7.60;;;;;;;21.59;51.85;100310.06;5134164;27;20612;-63
2023/06/20 00:07:01;;;;;;;9.77;8.35;;;;;;;21.55;51.67;100298.88;5131087;27;20646;-62
2023/06/20 00:09:29;;;;;;;9.88;8.60;;;;;;;21.56;52.45;100307.59;5135454;27;20581;-62
2023/06/20 00:11:58;;;;;;;9.27;8.32;;;;;;;21.56;52.17;100303.19;5134683;27;20207;-64
2023/06/20 00:14:27;;;;;;;8.93;8.02;;;;;;;21.56;52.09;100305.81;5127807;27;20211;-62
2023/06/20 00:16:58;;;;;;;8.85;8.02;;;;;;;21.55;52.39;100301.50;5133513;27;20210;-62
2023/06/20 00:19:27;;;;;;;9.10;8.02;;;;;;;21.54;52.25;100298.94;5133363;27;20199;-62
2023/06/20 00:21:55;;;;;;;10.45;8.75;;;;;;;21.55;52.81;100305.91;5140258;27;20205;-61
2023/06/20 00:24:23;;;;;;;10.00;9.00;;;;;;;21.54;53.04;100309.44;5133485;27;20211;-62
2023/06/20 00:26:51;;;;;;;11.07;8.48;;;;;;;21.52;52.91;100306.91;5126870;27;20203;-62
2023/06/20 00:29:20;;;;;;;9.25;8.35;;;;;;;21.52;53.02;100306.06;5132712;27;20233;-62
2023/06/20 00:31:48;;;;;;;9.55;8.55;;;;;;;21.51;52.97;100310.47;5127801;27;20204;-62
2023/06/20 00:34:17;;;;;;;9.57;8.55;;;;;;;21.50;53.15;100314.00;5133596;27;20264;-63
2023/06/20 00:36:45;;;;;;;9.77;8.77;;;;;;;21.48;52.95;100315.84;5131499;27;20199;-62
2023/06/20 00:39:13;;;;;;;8.93;8.10;;;;;;;21.47;53.39;100314.19;5135736;27;20223;-61
2023/06/20 00:41:41;;;;;;;9.50;8.43;;;;;;;21.44;53.08;100311.72;5133806;27;20195;-63
2023/06/20 00:44:09;;;;;;;10.63;8.90;;;;;;;21.40;53.30;100320.66;5133066;27;20222;-63
2023/06/20 00:46:41;;;;;;;9.73;8.73;;;;;;;21.37;53.48;100313.78;5130034;27;20227;-61
2023/06/20 00:49:10;;;;;;;9.40;8.40;;;;;;;21.36;53.26;100313.88;5131207;27;20617;-63
2023/06/20 00:51:39;;;;;;;10.00;8.27;;;;;;;21.35;53.63;100314.78;5130335;27;20209;-62
2023/06/20 00:54:07;;;;;;;9.90;9.00;;;;;;;21.34;53.78;100315.72;5129417;27;20195;-64
2023/06/20 00:56:35;;;;;;;9.93;8.95;;;;;;;21.31;53.71;100313.22;5131710;27;20219;-62
2023/06/20 00:59:04;;;;;;;9.30;8.30;;;;;;;21.28;53.71;100313.38;5133867;27;20537;-63
2023/06/20 01:01:32;;;;;;;10.45;9.35;;;;;;;21.22;53.74;100315.41;5130656;27;20210;-63
2023/06/20 01:04:03;;;;;;;10.18;9.15;;;;;;;21.24;53.96;100317.94;5129502;27;20216;-62
2023/06/20 01:06:36;;;;;;;9.50;8.60;;;;;;;21.21;54.04;100324.19;5128372;27;20203;-63
2023/06/20 01:09:13;;;;;;;9.52;8.63;;;;;;;21.18;54.14;100319.13;5133023;27;20568;-63
2023/06/20 01:11:48;;;;;;;10.48;9.23;;;;;;;21.20;54.44;100321.63;5134379;27;20202;-62
2023/06/20 01:14:22;;;;;;;10.00;9.00;;;;;;;21.18;54.07;100328.75;5132719;27;20223;-64
2023/06/20 01:16:59;;;;;;;10.55;9.32;;;;;;;21.16;54.12;100328.81;5132120;27;20205;-63
2023/06/20 01:19:54;;;;;;;10.15;9.18;;;;;;;21.14;54.96;100327.22;5133337;27;20242;-62
2023/06/20 01:22:42;;;;;;;10.32;9.18;;;;;;;21.12;54.90;100327.28;5128946;27;21585;-62
2023/06/20 01:25:17;;;;;;;9.50;8.60;;;;;;;21.12;55.95;100329.91;5133472;27;20571;-61
2023/06/20 01:27:54;;;;;;;10.15;9.20;;;;;;;21.08;55.94;100317.88;5125297;27;20210;-62
2023/06/20 01:30:25;;;;;;;9.90;9.00;;;;;;;21.05;56.32;100318.03;5130935;27;20303;-63
2023/06/20 01:32:57;;;;;;;10.10;9.20;;;;;;;21.01;56.09;100324.34;5132751;27;20199;-62
2023/06/20 01:35:30;;;;;;;9.73;8.68;;;;;;;21.01;56.54;100326.97;5128920;27;20282;-64
2023/06/20 01:38:03;;;;;;;10.48;9.40;;;;;;;20.98;55.99;100327.13;5126348;27;20658;-63
2023/06/20 01:40:33;;;;;;;10.20;9.13;;;;;;;20.94;56.42;100326.41;5137477;27;20226;-62
2023/06/20 01:43:04;;;;;;;10.52;9.50;;;;;;;20.90;56.52;100326.66;5132471;27;20230;-62
2023/06/20 01:45:36;;;;;;;9.90;8.90;;;;;;;20.87;56.76;100324.19;5133176;27;20649;-62
2023/06/20 01:48:07;;;;;;;9.85;8.95;;;;;;;20.86;57.46;100330.34;5132431;27;20203;-63
2023/06/20 01:50:38;;;;;;;10.13;9.13;;;;;;;20.83;57.68;100320.03;5134248;27;20238;-62
2023/06/20 01:53:08;;;;;;;9.55;8.60;;;;;;;20.80;57.62;100322.78;5134620;27;20214;-62
2023/06/20 01:55:41;;;;;;;10.18;9.27;;;;;;;20.77;57.94;100326.44;5127378;27;20199;-63
2023/06/20 01:58:12;;;;;;;10.57;9.27;;;;;;;20.75;57.14;100326.50;5132609;27;20597;-62
2023/06/20 02:00:41;;;;;;;9.45;8.55;;;;;;;20.73;56.58;100333.59;5129546;27;20207;-66
2023/06/20 02:03:11;;;;;;;10.32;9.35;;;;;;;20.69;57.17;100329.44;5130211;27;20215;-63
2023/06/20 02:05:42;;;;;;;11.23;9.45;;;;;;;20.69;57.65;100321.56;5131400;27;20731;-63
2023/06/20 02:08:12;;;;;;;14.55;9.27;;;;;;;20.69;57.82;100326.81;5130544;27;20204;-63
2023/06/20 02:10:42;;;;;;;9.73;8.88;;;;;;;20.65;58.08;100322.63;5127178;27;20210;-62
2023/06/20 02:13:10;;;;;;;10.80;9.70;;;;;;;20.64;58.37;100327.94;5129934;27;20614;-62
2023/06/20 02:15:42;;;;;;;10.07;9.07;;;;;;;20.61;58.81;100326.31;5129304;27;20200;-62
2023/06/20 02:18:10;;;;;;;9.70;8.80;;;;;;;20.60;58.73;100331.63;5127804;27;20280;-62
2023/06/20 02:20:38;;;;;;;9.70;8.85;;;;;;;20.56;58.45;100324.84;5130183;27;20211;-62
2023/06/20 02:23:07;;;;;;;10.07;9.10;;;;;;;20.54;58.81;100322.28;5133298;27;20629;-62
2023/06/20 02:25:40;;;;;;;10.70;9.60;;;;;;;20.52;58.86;100326.78;5128438;27;20282;-62
2023/06/20 02:28:11;;;;;;;12.93;10.38;;;;;;;20.47;59.32;100326.09;5130487;27;20268;-62
2023/06/20 02:30:39;;;;;;;10.60;9.57;;;;;;;20.47;59.34;100336.56;5127966;27;20204;-62
2023/06/20 02:33:11;;;;;;;10.75;9.68;;;;;;;20.45;59.61;100338.44;5129937;27;20212;-62
2023/06/20 02:35:41;;;;;;;9.82;8.93;;;;;;;20.44;59.40;100337.59;5126108;27;20217;-63
2023/06/20 02:38:11;;;;;;;11.23;10.13;;;;;;;20.42;59.68;100338.56;5128936;27;20242;-63
2023/06/20 02:40:40;;;;;;;11.10;9.35;;;;;;;20.40;59.68;100337.78;5126035;27;20207;-63
2023/06/20 02:43:08;;;;;;;10.02;8.90;;;;;;;20.38;59.87;100337.03;5132080;27;20268;-64
2023/06/20 02:45:37;;;;;;;10.77;9.75;;;;;;;20.36;60.01;100338.84;5128288;27;20211;-63
2023/06/20 02:48:27;;;;;;;11.55;10.35;;;;;;;20.35;59.93;100347.63;5130295;27;20290;-63
2023/06/20 02:51:06;;;;;;;12.07;9.88;;;;;;;20.28;59.88;100347.06;5134665;27;20571;-64
2023/06/20 02:53:44;;;;;;;11.50;10.13;;;;;;;20.25;59.82;100342.84;5125250;27;20318;-64
2023/06/20 02:56:16;;;;;;;10.73;9.73;;;;;;;20.27;60.05;100340.13;5133156;27;20553;-62
2023/06/20 02:58:52;;;;;;;10.80;9.77;;;;;;;20.25;60.31;100342.84;5130686;27;20222;-62
2023/06/20 03:01:24;;;;;;;10.52;9.02;;;;;;;20.28;59.82;100349.69;5130175;27;20191;-64
2023/06/20 03:03:56;;;;;;;11.73;10.43;;;;;;;20.27;60.03;100350.59;5124501;27;20305;-64
2023/06/20 03:06:27;;;;;;;10.65;9.63;;;;;;;20.30;60.29;100353.09;5130515;27;20272;-63
2023/06/20 03:08:59;;;;;;;10.32;9.13;;;;;;;20.28;60.29;100350.53;5129950;27;20206;-63
2023/06/20 03:11:29;;;;;;;11.57;10.38;;;;;;;20.33;60.05;100349.50;5129312;27;20260;-65
2023/06/20 03:13:57;;;;;;;10.27;9.27;;;;;;;20.33;60.31;100349.50;5128969;27;20203;-61
2023/06/20 03:16:26;;;;;;;12.30;10.48;;;;;;;20.31;59.65;100340.84;5126773;27;20199;-64
2023/06/20 03:18:54;;;;;;;11.40;10.20;;;;;;;20.30;59.67;100339.16;5128086;27;20217;-63
2023/06/20 03:21:23;;;;;;;11.90;9.45;;;;;;;20.28;59.91;100334.81;5135395;27;20195;-63
2023/06/20 03:23:56;;;;;;;14.27;9.82;;;;;;;20.33;60.73;100339.03;5132712;27;20219;-63
2023/06/20 03:26:25;;;;;;;9.93;9.02;;;;;;;20.34;61.04;100340.72;5125830;27;20207;-63
2023/06/20 03:28:55;;;;;;;12.13;10.77;;;;;;;20.36;60.37;100344.09;5125603;27;20635;-64
2023/06/20 03:31:23;;;;;;;10.80;9.52;;;;;;;20.36;60.75;100338.84;5125761;27;20361;-64
2023/06/20 03:33:52;;;;;;;11.70;10.43;;;;;;;20.41;60.79;100349.97;5128989;27;20640;-64
2023/06/20 03:36:20;;;;;;;11.73;9.90;;;;;;;20.42;60.92;100349.03;5129299;27;20200;-64
2023/06/20 03:38:49;;;;;;;11.55;10.27;;;;;;;20.41;61.02;100342.13;5128773;27;20203;-64
2023/06/20 03:41:18;;;;;;;12.60;10.88;;;;;;;20.44;61.18;100348.06;5132941;27;20200;-64
2023/06/20 03:43:46;;;;;;;11.77;10.57;;;;;;;20.49;60.95;100353.94;5131099;27;20199;-64
2023/06/20 03:46:16;;;;;;;13.15;11.68;;;;;;;20.49;60.61;100346.09;5134416;27;20202;-63
2023/06/20 03:48:44;;;;;;;13.88;10.70;;;;;;;20.45;60.68;100339.28;5125775;27;20318;-64
2023/06/20 03:51:13;;;;;;;13.30;12.02;;;;;;;20.55;60.85;100360.66;5130370;27;20556;-64
2023/06/20 03:53:41;;;;;;;11.35;10.25;;;;;;;20.58;60.63;100365.72;5130643;27;20202;-63
2023/06/20 03:56:10;;;;;;;11.95;10.10;;;;;;;20.59;60.81;100350.91;5135450;27;20630;-63
2023/06/20 03:58:40;;;;;;;11.52;10.32;;;;;;;20.67;59.80;100353.97;5130328;27;20278;-63
2023/06/20 04:01:08;;;;;;;13.57;10.07;;;;;;;20.70;59.34;100359.94;5129222;27;20669;-65
2023/06/20 04:03:37;;;;;;;11.45;10.35;;;;;;;20.78;59.57;100356.09;5126464;27;20196;-62
2023/06/20 04:06:06;;;;;;;11.93;10.77;;;;;;;20.83;59.74;100365.41;5132080;27;21493;-62
2023/06/20 04:08:35;;;;;;;11.27;10.25;;;;;;;20.88;59.89;100362.56;5131012;27;20542;-62
2023/06/20 04:11:03;;;;;;;12.02;10.55;;;;;;;20.93;59.93;100360.56;5132335;27;20543;-62
2023/06/20 04:13:31;;;;;;;12.55;10.18;;;;;;;20.98;59.69;100362.03;5132376;27;20207;-62
2023/06/20 04:15:59;;;;;;;11.57;10.45;;;;;;;21.04;58.36;100368.75;5133989;27;20365;-63
2023/06/20 04:18:27;;;;;;;11.45;9.65;;;;;;;21.10;56.99;100367.56;5131010;27;20556;-62
2023/06/20 04:21:02;;;;;;;12.85;10.00;;;;;;;21.19;57.03;100373.22;5124574;27;20597;-62
2023/06/20 04:23:30;;;;;;;10.77;9.43;;;;;;;21.33;56.47;100361.19;5133906;27;20248;-63
2023/06/20 04:25:58;;;;;;;10.70;9.60;;;;;;;21.43;55.30;100365.06;5132181;27;20270;-63
2023/06/20 04:28:26;;;;;;;9.60;8.77;;;;;;;21.53;54.39;100365.44;5128572;27;20644;-62
2023/06/20 04:30:55;;;;;;;9.25;8.35;;;;;;;21.61;53.42;100361.47;5129588;27;20215;-62
2023/06/20 04:33:23;;;;;;;9.30;7.50;;;;;;;21.71;52.98;100365.31;5134073;27;20203;-63
2023/06/20 04:35:51;;;;;;;9.80;8.95;;;;;;;21.83;52.69;100368.22;5128699;27;20248;-62
2023/06/20 04:38:20;;;;;;;8.18;7.47;;;;;;;21.99;52.00;100369.09;5124563;27;20285;-61
2023/06/20 04:40:48;;;;;;;8.68;7.78;;;;;;;22.10;51.24;100368.53;5138090;27;20217;-61
2023/06/20 04:43:16;;;;;;;8.98;8.07;;;;;;;22.19;50.56;100373.28;5135685;27;20532;-62
2023/06/20 04:45:44;;;;;;;8.25;7.45;;;;;;;22.32;50.35;100373.50;5135745;27;20219;-63
2023/06/20 04:48:12;;;;;;;11.18;8.10;;;;;;;22.39;50.39;100366.97;5132462;27;20207;-62
2023/06/20 04:50:41;;;;;;;9.32;8.18;;;;;;;22.48;50.47;100376.09;5129975;27;20290;-62
2023/06/20 04:53:09;;;;;;;10.25;8.07;;;;;;;22.57;50.37;100370.31;5130714;27;20579;-62
2023/06/20 04:55:39;;;;;;;11.40;8.05;;;;;;;22.67;50.25;100376.75;5129238;27;20581;-63
2023/06/20 04:58:07;;;;;;;9.25;8.35;;;;;;;22.85;50.31;100369.63;5131721;27;20741;-62
2023/06/20 05:00:37;;;;;;;9.50;8.40;;;;;;;23.09;50.40;100373.50;5131188;27;20586;-62
2023/06/20 05:03:05;;;;;;;8.55;7.72;;;;;;;23.44;50.09;100372.34;5133051;27;20219;-62
2023/06/20 05:05:33;;;;;;;9.63;8.05;;;;;;;23.80;48.76;100370.16;5130008;27;20293;-62
2023/06/20 05:08:01;;;;;;;8.85;7.72;;;;;;;24.12;47.98;100369.94;5131692;27;20207;-62
2023/06/20 05:10:29;;;;;;;9.02;8.20;;;;;;;24.26;46.98;100371.69;5130728;27;20199;-62
2023/06/20 05:12:58;;;;;;;8.48;7.68;;;;;;;24.29;46.52;100367.06;5132395;27;20248;-63
2023/06/20 05:15:26;;;;;;;8.75;7.38;;;;;;;24.32;46.39;100371.31;5130186;27;20231;-63
2023/06/20 05:17:55;;;;;;;9.00;8.10;;;;;;;24.32;46.09;100369.50;5118419;27;20207;-62
2023/06/20 05:20:23;;;;;;;8.77;7.97;;;;;;;24.44;46.08;100372.34;5119155;27;20269;-60
2023/06/20 05:22:51;;;;;;;10.45;7.63;;;;;;;24.69;45.58;100376.88;5118462;27;20199;-61
2023/06/20 05:25:19;;;;;;;9.93;7.80;;;;;;;24.72;45.30;100371.41;5119839;27;20468;-62
2023/06/20 05:27:48;;;;;;;14.18;8.15;;;;;;;24.69;45.49;100379.50;5123058;27;20217;-62
2023/06/20 05:30:18;;;;;;;8.90;8.00;;;;;;;24.61;45.86;100371.25;5120515;27;20230;-61
2023/06/20 05:32:46;;;;;;;8.93;7.70;;;;;;;24.52;46.15;100376.19;5117468;27;20711;-62
2023/06/20 05:35:14;;;;;;;8.93;7.97;;;;;;;24.45;46.67;100374.91;5117399;27;20196;-61
2023/06/20 05:37:45;;;;;;;10.05;8.23;;;;;;;24.40;47.13;100374.31;5120292;27;20203;-60
2023/06/20 05:40:15;;;;;;;9.23;8.32;;;;;;;24.36;47.10;100370.16;5119096;27;20206;-62
2023/06/20 05:42:43;;;;;;;9.73;8.50;;;;;;;24.37;47.55;100366.56;5117923;27;20577;-61
2023/06/20 05:45:12;;;;;;;10.90;8.30;;;;;;;24.38;47.34;100363.03;5120205;27;20229;-61
2023/06/20 05:47:44;;;;;;;9.27;8.40;;;;;;;24.41;47.35;100373.38;5123274;27;20589;-60
2023/06/20 05:50:12;;;;;;;11.73;8.38;;;;;;;24.49;47.46;100365.84;5127985;27;20198;-61
2023/06/20 05:52:40;;;;;;;9.50;8.40;;;;;;;24.62;47.24;100375.59;5127965;27;20729;-62
2023/06/20 05:55:09;;;;;;;11.38;7.88;;;;;;;24.74;46.81;100378.28;5131888;27;20195;-62
2023/06/20 05:57:38;;;;;;;9.65;8.02;;;;;;;24.89;46.92;100378.19;5127117;27;20230;-63
2023/06/20 06:00:12;;;;;;;8.93;7.80;;;;;;;25.03;46.96;100384.25;5129570;27;20282;-63
2023/06/20 06:02:42;;;;;;;10.82;8.32;;;;;;;25.14;46.22;100380.94;5130518;27;20203;-64
2023/06/20 06:05:10;;;;;;;15.70;8.95;;;;;;;25.37;46.08;100382.03;5127280;27;20199;-65
2023/06/20 06:07:39;;;;;;;8.50;7.55;;;;;;;25.68;45.53;100385.22;5129337;27;20208;-62
2023/06/20 06:10:08;;;;;;;9.85;8.07;;;;;;;25.89;44.98;100375.81;5121320;27;20211;-60
2023/06/20 06:12:36;;;;;;;8.38;7.07;;;;;;;25.97;43.80;100380.56;5128109;27;20195;-62
2023/06/20 06:15:06;;;;;;;7.70;6.72;;;;;;;25.97;44.29;100385.84;5120896;27;20218;-61
2023/06/20 06:17:34;;;;;;;10.98;7.93;;;;;;;25.99;44.05;100374.19;5129074;27;20200;-63
2023/06/20 06:20:07;;;;;;;10.30;7.13;;;;;;;26.18;44.02;100379.06;5134453;27;20689;-62
2023/06/20 06:22:35;;;;;;;11.57;7.00;;;;;;;26.48;43.44;100378.66;5131786;27;20195;-60
2023/06/20 06:25:04;;;;;;;14.20;8.07;;;;;;;26.90;42.63;100371.16;5132011;27;20561;-61
2023/06/20 06:27:34;;;;;;;13.48;7.97;;;;;;;27.15;41.81;100372.84;5128268;27;20219;-61
2023/06/20 06:30:02;;;;;;;8.20;7.40;;;;;;;27.23;41.55;100374.91;5130427;27;20291;-62
2023/06/20 06:32:35;;;;;;;10.48;8.10;;;;;;;27.18;41.38;100374.44;5125932;27;20297;-61
2023/06/20 06:35:08;;;;;;;8.43;7.40;;;;;;;27.06;41.15;100370.84;5130116;27;20282;-61
2023/06/20 06:37:37;;;;;;;8.38;6.95;;;;;;;26.93;40.84;100376.22;5131915;27;20203;-61
2023/06/20 06:40:07;;;;;;;7.70;6.90;;;;;;;26.96;41.05;100377.81;5129394;27;20223;-61
2023/06/20 06:42:35;;;;;;;6.95;6.35;;;;;;;27.03;40.96;100376.41;5129808;27;20237;-61
2023/06/20 06:45:04;;;;;;;10.00;9.00;;;;;;;27.07;41.14;100374.34;5128436;27;20209;-62
2023/06/20 06:47:34;;;;;;;10.20;9.20;;;;;;;27.03;41.66;100381.69;5124117;27;20214;-61
2023/06/20 06:50:02;;;;;;;9.50;8.50;;;;;;;26.96;42.76;100381.28;5130992;27;20242;-61
2023/06/20 06:52:32;;;;;;;10.98;7.78;;;;;;;26.95;42.87;100376.09;5128715;27;21001;-62
2023/06/20 06:55:00;;;;;;;9.60;8.05;;;;;;;26.98;42.63;100382.00;5130968;27;20201;-62
2023/06/20 06:57:28;;;;;;;12.57;8.82;;;;;;;27.17;43.18;100386.81;5133512;27;20191;-62
2023/06/20 06:59:56;;;;;;;10.90;8.43;;;;;;;27.44;41.86;100385.66;5134077;27;20203;-62
2023/06/20 07:02:26;;;;;;;11.13;7.32;;;;;;;27.80;40.57;100382.00;5130928;27;20234;-62
2023/06/20 07:04:55;;;;;;;8.88;7.97;;;;;;;28.35;39.58;100388.22;5129079;27;20217;-61
2023/06/20 07:07:23;;;;;;;7.95;7.15;;;;;;;29.02;38.04;100381.06;5126299;27;20219;-61
2023/06/20 07:09:52;;;;;;;7.93;6.68;;;;;;;29.06;36.69;100379.84;5126575;27;20710;-62
2023/06/20 07:12:20;;;;;;;7.80;7.00;;;;;;;28.87;36.89;100378.69;5129674;27;20206;-61
2023/06/20 07:14:50;;;;;;;7.43;5.95;;;;;;;28.99;36.01;100381.31;5134452;27;20222;-63
2023/06/20 07:17:18;;;;;;;8.60;5.65;;;;;;;29.21;35.25;100378.53;5129258;27;20218;-64
2023/06/20 07:19:46;;;;;;;7.75;6.32;;;;;;;29.59;34.71;100364.66;5125580;27;20421;-62
2023/06/20 07:22:14;;;;;;;7.25;6.55;;;;;;;30.01;34.36;100361.06;5127858;27;20248;-63
2023/06/20 07:24:42;;;;;;;9.00;6.68;;;;;;;30.40;34.50;100354.06;5130635;27;20218;-62
2023/06/20 07:27:11;;;;;;;7.05;6.22;;;;;;;30.85;33.40;100368.66;5131780;27;20260;-63
2023/06/20 07:29:39;;;;;;;7.25;6.53;;;;;;;30.78;32.57;100369.25;5124225;27;20763;-63
2023/06/20 07:32:08;;;;;;;7.75;7.05;;;;;;;30.55;33.32;100373.94;5121869;27;20290;-63
2023/06/20 07:34:36;;;;;;;7.65;6.60;;;;;;;30.51;33.44;100372.53;5125272;27;20210;-62
2023/06/20 07:37:04;;;;;;;8.32;7.50;;;;;;;30.67;32.50;100387.97;5123476;27;20203;-62
2023/06/20 07:39:32;;;;;;;9.00;6.60;;;;;;;30.96;32.56;100381.81;5124704;27;20668;-62
2023/06/20 07:42:00;;;;;;;11.15;7.00;;;;;;;31.22;31.99;100374.91;5129302;27;20217;-63
2023/06/20 07:44:29;;;;;;;6.93;6.20;;;;;;;31.17;31.86;100379.84;5127452;27;20581;-62
2023/06/20 07:46:58;;;;;;;15.85;7.20;;;;;;;31.00;31.92;100383.22;5124758;27;20250;-62
2023/06/20 07:49:26;;;;;;;8.70;7.85;;;;;;;30.67;32.28;100381.78;5122539;27;20208;-62
2023/06/20 07:51:54;;;;;;;8.38;6.63;;;;;;;30.15;33.48;100389.06;5128963;27;20207;-63
2023/06/20 07:54:22;;;;;;;9.50;6.47;;;;;;;29.65;33.74;100389.88;5135145;27;20292;-61
2023/06/20 07:56:50;;;;;;;10.07;6.85;;;;;;;29.19;34.77;100388.44;5131718;27;20199;-61
2023/06/20 07:59:19;;;;;;;6.65;6.05;;;;;;;28.99;35.41;100386.63;5131500;27;20195;-61
2023/06/20 08:01:49;;;;;;;8.00;6.68;;;;;;;28.71;35.63;100393.31;5127734;27;20289;-61
2023/06/20 08:04:17;;;;;;;7.13;6.38;;;;;;;28.38;35.60;100398.59;5135139;27;20201;-60
2023/06/20 08:06:44;;;;;;;8.50;6.13;;;;;;;28.09;35.89;100400.88;5132992;27;20586;-61
2023/06/20 08:09:12;;;;;;;8.80;7.00;;;;;;;27.93;36.42;100393.31;5133414;27;20206;-63
2023/06/20 08:11:41;;;;;;;9.68;7.22;;;;;;;27.82;36.31;100395.13;5133358;27;20290;-61
2023/06/20 08:14:11;;;;;;;7.60;6.90;;;;;;;27.72;36.34;100394.13;5129341;27;20203;-62
2023/06/20 08:16:39;;;;;;;9.63;6.03;;;;;;;27.63;36.81;100391.22;5128181;27;20260;-61
2023/06/20 08:19:09;;;;;;;7.00;6.30;;;;;;;27.64;36.63;100392.91;5127437;27;20908;-62
2023/06/20 08:21:38;;;;;;;6.82;6.22;;;;;;;27.69;36.24;100396.06;5130585;27;20203;-61
2023/06/20 08:24:06;;;;;;;7.03;6.32;;;;;;;27.65;36.40;100394.59;5131755;27;20203;-63
2023/06/20 08:26:34;;;;;;;6.90;6.28;;;;;;;27.62;36.56;100392.19;5119261;27;22520;-63
2023/06/20 08:29:02;;;;;;;7.55;6.13;;;;;;;27.49;36.79;100394.09;5133116;27;20239;-63
2023/06/20 08:31:36;;;;;;;7.70;6.90;;;;;;;27.50;37.12;100405.50;5130872;27;20200;-64
2023/06/20 08:34:05;;;;;;;10.38;6.60;;;;;;;27.45;37.43;100398.78;5131389;27;20617;-63
2023/06/20 08:36:34;;;;;;;7.65;6.95;;;;;;;27.44;37.30;100406.84;5131426;27;20738;-61
2023/06/20 08:39:04;;;;;;;7.50;6.80;;;;;;;27.40;37.24;100398.28;5131393;27;20646;-62
2023/06/20 08:41:32;;;;;;;9.32;6.45;;;;;;;27.30;37.32;100399.94;5130013;27;20577;-62
2023/06/20 08:44:00;;;;;;;9.15;7.18;;;;;;;27.26;37.84;100403.78;5133457;27;20207;-61
2023/06/20 08:46:28;;;;;;;8.60;6.82;;;;;;;27.25;37.61;100403.88;5134444;27;20224;-61
2023/06/20 08:48:57;;;;;;;7.45;6.60;;;;;;;27.22;37.91;100407.63;5132237;27;20206;-60
2023/06/20 08:51:29;;;;;;;9.77;6.95;;;;;;;27.20;37.56;100404.25;5132183;27;20286;-63
2023/06/20 08:54:02;;;;;;;7.88;6.75;;;;;;;27.18;37.70;100406.16;5134517;27;20639;-61
2023/06/20 08:56:31;;;;;;;7.50;6.75;;;;;;;27.15;37.69;100409.88;5133805;27;20239;-63
2023/06/20 08:58:59;;;;;;;7.82;6.07;;;;;;;27.08;37.91;100405.97;5131574;27;20204;-62
2023/06/20 09:01:27;;;;;;;7.30;6.18;;;;;;;26.98;37.53;100415.53;5128197;27;20222;-62
2023/06/20 09:04:00;;;;;;;7.05;6.20;;;;;;;26.86;37.87;100412.00;5128734;27;20200;-61
2023/06/20 09:06:33;;;;;;;7.25;6.55;;;;;;;26.80;38.22;100411.63;5130081;27;20200;-60
2023/06/20 09:09:02;;;;;;;8.25;6.50;;;;;;;26.74;37.86;100412.94;5132572;27;20745;-62
2023/06/20 09:11:35;;;;;;;7.03;6.32;;;;;;;26.70;37.53;100414.13;5127258;27;20199;-60
2023/06/20 09:14:03;;;;;;;6.20;5.60;;;;;;;26.64;37.74;100410.09;5121931;27;20234;-60
2023/06/20 09:16:31;;;;;;;8.00;7.22;;;;;;;26.60;38.52;100411.28;5131833;27;20244;-60
2023/06/20 09:18:59;;;;;;;6.93;6.32;;;;;;;26.62;38.01;100411.16;5130724;27;20206;-60
2023/06/20 09:21:28;;;;;;;8.43;7.22;;;;;;;26.61;38.10;100402.38;5123846;27;20222;-61
2023/06/20 09:24:04;;;;;;;7.28;6.63;;;;;;;26.73;38.11;100405.94;5121904;27;20239;-60
2023/06/20 09:26:32;;;;;;;7.90;6.15;;;;;;;26.82;37.47;100405.28;5120676;27;20600;-60
2023/06/20 09:29:10;;;;;;;10.05;7.80;;;;;;;26.95;37.95;100406.06;5121856;27;20227;-60
2023/06/20 09:31:42;;;;;;;9.70;7.50;;;;;;;27.08;37.39;100394.56;5117725;27;20206;-60
2023/06/20 09:34:12;;;;;;;8.32;7.43;;;;;;;27.18;37.18;100400.88;5123952;27;20560;-59
2023/06/20 09:36:41;;;;;;;9.32;7.10;;;;;;;27.30;37.18;100404.41;5123375;27;20200;-62
2023/06/20 09:39:12;;;;;;;10.68;6.15;;;;;;;27.49;36.41;100402.03;5123783;27;20200;-61
2023/06/20 09:41:49;;;;;;;8.68;7.40;;;;;;;27.71;35.81;100395.91;5128545;27;20299;-60
2023/06/20 09:44:19;;;;;;;7.13;6.50;;;;;;;27.90;35.38;100403.31;5128295;27;20702;-61
2023/06/20 09:46:48;;;;;;;8.32;7.38;;;;;;;28.05;35.11;100395.94;5127472;27;20199;-59
2023/06/20 09:49:16;;;;;;;9.13;7.18;;;;;;;28.18;35.12;100401.97;5127409;27;20216;-60
2023/06/20 09:51:48;;;;;;;8.35;7.03;;;;;;;28.28;35.06;100397.63;5121603;27;20199;-61
2023/06/20 09:54:29;;;;;;;7.07;6.38;;;;;;;28.41;34.66;100398.34;5130487;27;20199;-61
2023/06/20 09:57:02;;;;;;;8.35;7.22;;;;;;;28.71;34.95;100401.28;5128491;27;20309;-60
2023/06/20 09:59:32;;;;;;;9.23;6.63;;;;;;;29.23;34.44;100400.47;5131229;27;20199;-60
2023/06/20 10:02:02;;;;;;;8.20;7.35;;;;;;;29.86;33.16;100395.13;5134128;27;20286;-59
2023/06/20 10:04:32;;;;;;;8.50;7.80;;;;;;;30.57;31.64;100387.13;5122836;27;20207;-60
2023/06/20 10:07:00;;;;;;;8.20;7.28;;;;;;;31.47;29.86;100384.16;5125140;27;20722;-62
2023/06/20 10:09:30;;;;;;;7.65;6.90;;;;;;;31.68;28.63;100386.63;5129581;27;20211;-61
2023/06/20 10:11:59;;;;;;;8.85;8.05;;;;;;;31.17;29.49;100384.34;5128666;27;20195;-63
2023/06/20 10:14:27;;;;;;;8.00;6.85;;;;;;;30.58;30.67;100390.63;5136907;27;20203;-61
2023/06/20 10:16:55;;;;;;;8.27;6.88;;;;;;;29.93;31.60;100392.78;5132339;27;20264;-62
2023/06/20 10:19:23;;;;;;;7.90;7.10;;;;;;;29.34;32.57;100389.78;5131567;27;20206;-62
2023/06/20 10:21:57;;;;;;;8.10;7.40;;;;;;;29.17;33.08;100395.69;5129357;27;20195;-64
2023/06/20 10:24:27;;;;;;;6.70;6.07;;;;;;;30.29;31.67;100388.72;5130921;27;20281;-61
2023/06/20 10:27:01;;;;;;;7.28;6.68;;;;;;;31.99;29.86;100375.72;5127377;27;20206;-62
2023/06/20 10:29:29;;;;;;;7.10;6.50;;;;;;;33.67;27.57;100379.44;5126788;27;20619;-61
2023/06/20 10:32:02;;;;;;;6.80;6.25;;;;;;;35.08;25.23;100365.25;5131996;27;20222;-61
2023/06/20 10:34:35;;;;;;;6.53;6.03;;;;;;;36.04;24.00;100369.72;5128753;27;20195;-62
2023/06/20 10:37:38;;;;;;;6.85;6.35;;;;;;;36.96;22.23;100371.69;5129683;27;20751;-61
2023/06/20 10:40:09;;;;;;;6.45;5.95;;;;;;;37.81;20.91;100371.28;5132049;27;20247;-62
2023/06/20 10:42:41;;;;;;;6.45;5.75;;;;;;;37.86;20.76;100371.59;5135668;27;20796;-64
2023/06/20 10:45:24;;;;;;;6.32;5.70;;;;;;;36.44;20.80;100383.09;5132245;27;20203;-59
2023/06/20 10:47:53;;;;;;;6.20;5.70;;;;;;;34.69;23.45;100381.16;5123311;27;20233;-59
2023/06/20 10:50:22;;;;;;;8.15;7.55;;;;;;;33.31;25.73;100378.69;5131005;27;20195;-59
2023/06/20 10:52:50;;;;;;;6.38;5.85;;;;;;;32.26;26.84;100382.88;5131574;27;20294;-60
2023/06/20 10:55:23;;;;;;;7.03;6.30;;;;;;;31.34;27.86;100377.47;5135453;27;20198;-60
2023/06/20 10:57:53;;;;;;;6.85;6.22;;;;;;;30.69;29.03;100380.69;5129477;27;20569;-59
2023/06/20 11:00:23;;;;;;;7.85;6.40;;;;;;;30.11;30.16;100385.00;5119324;27;20625;-60
2023/06/20 11:02:53;;;;;;;7.55;6.43;;;;;;;29.63;31.09;100375.88;5119714;27;20203;-59
2023/06/20 11:05:26;;;;;;;8.13;7.43;;;;;;;29.30;31.90;100376.91;5126018;27;20225;-59
2023/06/20 11:07:56;;;;;;;7.25;6.65;;;;;;;28.95;32.77;100375.41;5122456;27;20208;-59
2023/06/20 11:10:28;;;;;;;7.85;7.07;;;;;;;28.72;33.29;100377.31;5122416;27;20653;-61
2023/06/20 11:12:58;;;;;;;8.85;8.05;;;;;;;28.53;33.67;100374.44;5117161;27;20294;-61
2023/06/20 11:15:29;;;;;;;8.10;7.30;;;;;;;28.37;33.92;100378.34;5123239;27;20209;-61
2023/06/20 11:17:58;;;;;;;9.05;8.25;;;;;;;28.22;34.27;100376.91;5121928;27;20568;-60
2023/06/20 11:20:26;;;;;;;7.95;7.00;;;;;;;28.07;34.64;100372.84;5125059;27;20199;-60
2023/06/20 11:22:57;;;;;;;8.38;7.68;;;;;;;27.93;35.12;100372.13;5120715;27;20207;-60
2023/06/20 11:25:27;;;;;;;9.05;8.00;;;;;;;27.82;35.56;100369.47;5125589;27;20202;-61
2023/06/20 11:27:56;;;;;;;8.50;7.80;;;;;;;27.70;35.73;100360.66;5122533;27;20195;-61
2023/06/20 11:30:27;;;;;;;6.88;6.07;;;;;;;27.67;35.67;100365.34;5121813;27;20231;-60
2023/06/20 11:33:00;;;;;;;7.45;6.70;;;;;;;27.60;35.93;100362.34;5123678;27;20202;-61
2023/06/20 11:35:46;;;;;;;6.70;6.10;;;;;;;27.56;35.65;100363.53;5123361;27;20278;-62